createdAt,value
2023-04-18T00:01:15.085Z,42.69
2023-04-18T00:06:19.459Z,42.83
2023-04-18T00:11:22.974Z,43.34
2023-04-18T00:16:28.542Z,43.48
2023-04-18T00:21:32.268Z,43.40
2023-04-18T00:26:35.802Z,43.68
2023-04-18T00:31:40.711Z,43.80
2023-04-18T00:36:43.883Z,42.41
2023-04-18T00:41:47.334Z,44.56
2023-04-18T00:46:52.258Z,44.41
2023-04-18T00:51:56.017Z,43.28
2023-04-18T00:56:59.484Z,44.26
2023-04-18T01:02:05.500Z,44.73
2023-04-18T01:07:09.542Z,45.11
2023-04-18T01:12:13.054Z,44.90
2023-04-18T01:17:18.109Z,45.28
2023-04-18T01:22:21.799Z,45.78
2023-04-18T01:27:26.829Z,45.98
2023-04-18T01:32:30.434Z,45.57
2023-04-18T01:37:34.104Z,45.39
2023-04-18T01:42:39.222Z,45.48
2023-04-18T01:47:42.644Z,44.96
2023-04-18T01:52:46.131Z,45.05
2023-04-18T01:57:51.962Z,45.08
2023-04-18T02:02:55.583Z,45.01
2023-04-18T02:07:59.392Z,45.19
2023-04-18T02:13:04.356Z,45.05
2023-04-18T02:18:09.716Z,44.26
2023-04-18T02:23:13.632Z,45.72
2023-04-18T02:28:18.486Z,46.12
2023-04-18T02:33:21.658Z,45.26
2023-04-18T02:38:25.184Z,46.34
2023-04-18T02:43:30.238Z,46.67
2023-04-18T02:48:33.449Z,45.09
2023-04-18T02:53:37.110Z,45.14
2023-04-18T02:58:42.016Z,45.21
2023-04-18T03:03:45.208Z,44.25
2023-04-18T03:08:48.779Z,45.09
2023-04-18T03:13:55.225Z,44.13
2023-04-18T03:18:58.684Z,44.18
2023-04-18T03:24:02.412Z,44.19
2023-04-18T03:29:07.616Z,44.20
2023-04-18T03:34:11.245Z,44.35
2023-04-18T03:39:15.130Z,44.70
2023-04-18T03:44:20.320Z,44.50
2023-04-18T03:49:24.037Z,45.00
2023-04-18T03:54:27.644Z,45.42
2023-04-18T03:59:32.580Z,45.63
2023-04-18T04:04:35.766Z,45.32
2023-04-18T04:09:39.217Z,45.07
2023-04-18T04:14:44.281Z,45.32
2023-04-18T04:19:47.766Z,45.56
2023-04-18T04:24:51.941Z,45.71
2023-04-18T04:29:57.341Z,45.56
2023-04-18T04:35:00.983Z,45.61
2023-04-18T04:40:06.478Z,44.80
2023-04-18T04:45:12.647Z,44.28
2023-04-18T04:50:16.745Z,44.12
2023-04-18T04:55:20.437Z,43.80
2023-04-18T05:00:25.650Z,42.31
2023-04-18T05:05:29.396Z,39.69
2023-04-18T05:10:33.263Z,37.48
2023-04-18T05:15:38.236Z,36.32
2023-04-18T05:20:41.810Z,35.20
2023-04-18T05:25:45.355Z,33.76
2023-04-18T05:30:50.256Z,30.85
2023-04-18T05:35:53.874Z,28.93
2023-04-18T05:41:00.422Z,25.61
2023-04-18T05:46:05.667Z,22.03
2023-04-18T05:51:11.452Z,19.07
2023-04-18T05:56:15.654Z,15.95
2023-04-18T06:01:21.702Z,16.33
2023-04-18T06:06:25.970Z,15.12
2023-04-18T06:11:33.599Z,14.25
2023-04-18T06:16:39.271Z,14.76
2023-04-18T06:21:43.224Z,16.51
2023-04-18T06:26:47.491Z,15.86
2023-04-18T06:31:52.724Z,13.84
2023-04-18T06:36:56.715Z,15.09
2023-04-18T06:42:00.205Z,13.82
2023-04-18T06:47:05.756Z,11.92
2023-04-18T06:52:12.219Z,10.64
2023-04-18T06:57:15.862Z,9.98
2023-04-18T07:02:20.965Z,10.38
2023-04-18T07:07:26.558Z,13.50
2023-04-18T07:12:30.097Z,15.52
2023-04-18T07:17:35.633Z,17.48
2023-04-18T07:22:41.439Z,19.55
2023-04-18T07:27:45.736Z,20.77
2023-04-18T07:32:50.805Z,22.42
2023-04-18T07:37:54.688Z,24.26
2023-04-18T07:42:58.300Z,24.83
2023-04-18T07:48:03.556Z,25.92
2023-04-18T07:53:08.650Z,26.38
2023-04-18T07:58:12.348Z,26.99
2023-04-18T08:03:17.817Z,28.01
2023-04-18T08:08:21.664Z,28.49
2023-04-18T08:13:25.581Z,28.46
2023-04-18T08:18:30.554Z,28.64
2023-04-18T08:23:34.035Z,29.37
2023-04-18T08:28:38.022Z,30.73
2023-04-18T08:33:43.757Z,32.19
2023-04-18T08:38:47.769Z,33.12
2023-04-18T08:43:51.276Z,32.80
2023-04-18T08:48:58.724Z,33.47
2023-04-18T08:54:04.744Z,33.64
2023-04-18T08:59:09.731Z,33.86
2023-04-18T09:04:31.908Z,33.99
2023-04-18T09:09:46.777Z,33.24
2023-04-18T09:14:51.640Z,33.17
2023-04-18T09:19:56.866Z,32.59
2023-04-18T09:25:00.518Z,32.03
2023-04-18T09:30:04.433Z,32.10
2023-04-18T09:35:10.453Z,31.36
2023-04-18T09:40:19.159Z,31.24
2023-04-18T09:45:25.498Z,30.40
2023-04-18T09:50:31.372Z,29.48
2023-04-18T09:55:35.614Z,28.74
2023-04-18T10:00:40.183Z,28.94
2023-04-18T10:05:46.114Z,26.93
2023-04-18T10:10:49.637Z,26.52
2023-04-18T10:15:54.820Z,26.12
2023-04-18T10:21:04.856Z,26.02
2023-04-18T10:26:09.216Z,26.97
2023-04-18T10:31:12.999Z,27.52
2023-04-18T10:36:20.632Z,27.50
2023-04-18T10:41:26.589Z,26.82
2023-04-18T10:46:32.804Z,27.33
2023-04-18T10:51:38.441Z,27.85
2023-04-18T10:56:42.185Z,27.79
2023-04-18T11:01:50.600Z,27.39
2023-04-18T11:06:58.446Z,27.27
2023-04-18T11:12:07.081Z,27.27
2023-04-18T11:17:21.034Z,27.03
2023-04-18T11:22:26.512Z,26.90
2023-04-18T11:27:31.358Z,27.65
2023-04-18T11:32:36.109Z,27.26
2023-04-18T11:37:42.038Z,27.32
2023-04-18T11:42:48.496Z,27.30
2023-04-18T11:47:58.283Z,27.26
2023-04-18T11:53:03.305Z,27.41
2023-04-18T11:58:07.578Z,27.60
2023-04-18T12:03:18.014Z,27.48
2023-04-18T12:08:23.193Z,27.94
2023-04-18T12:13:28.295Z,28.36
2023-04-18T12:18:32.824Z,28.41
2023-04-18T12:23:40.510Z,28.16
2023-04-18T12:28:48.197Z,28.92
2023-04-18T12:33:51.786Z,29.04
2023-04-18T12:38:57.072Z,29.37
2023-04-18T12:44:01.760Z,29.66
2023-04-18T12:49:05.681Z,29.87
2023-04-18T12:54:10.617Z,29.61
2023-04-18T12:59:14.569Z,29.33
2023-04-18T13:04:18.996Z,29.55
2023-04-18T13:09:27.053Z,29.43
2023-04-18T13:14:30.750Z,29.80
2023-04-18T13:19:34.780Z,29.74
2023-04-18T13:24:39.731Z,30.13
2023-04-18T13:29:45.809Z,30.68
2023-04-18T13:34:50.212Z,30.95
2023-04-18T13:39:55.121Z,31.14
2023-04-18T13:45:00.170Z,30.70
2023-04-18T13:50:04.349Z,30.30
2023-04-18T13:55:12.575Z,30.34
2023-04-18T14:00:19.676Z,31.13
2023-04-18T14:05:24.097Z,31.35
2023-04-18T14:10:29.212Z,31.54
2023-04-18T14:15:33.425Z,31.59
2023-04-18T14:20:37.725Z,32.11
2023-04-18T14:25:42.706Z,32.41
2023-04-18T14:30:46.516Z,32.58
2023-04-18T14:35:50.096Z,32.54
2023-04-18T14:40:55.472Z,32.85
2023-04-18T14:45:59.840Z,33.19
2023-04-18T14:51:03.676Z,33.52
2023-04-18T14:56:09.241Z,33.72
2023-04-18T15:01:13.006Z,34.17
2023-04-18T15:06:16.807Z,34.27
2023-04-18T15:11:22.013Z,34.54
2023-04-18T15:16:26.002Z,34.66
2023-04-18T15:21:29.763Z,34.60
2023-04-18T15:26:34.762Z,34.76
2023-04-18T15:31:39.152Z,34.81
2023-04-18T15:36:43.292Z,35.04
2023-04-18T15:41:52.757Z,34.69
2023-04-18T15:46:56.348Z,34.94
2023-04-18T15:51:59.826Z,35.08
2023-04-18T15:57:04.769Z,34.72
2023-04-18T16:02:09.909Z,35.31
2023-04-18T16:07:13.690Z,35.32
2023-04-18T16:12:19.422Z,35.77
2023-04-18T16:17:23.055Z,35.89
2023-04-18T16:22:26.608Z,36.26
2023-04-18T16:27:32.287Z,36.00
2023-04-18T16:32:35.938Z,36.37
2023-04-18T16:37:39.900Z,36.90
2023-04-18T16:42:44.920Z,37.02
2023-04-18T16:47:48.615Z,37.39
2023-04-18T16:52:52.259Z,37.08
2023-04-18T16:57:57.517Z,38.06
2023-04-18T17:03:01.841Z,37.79
2023-04-18T17:08:05.836Z,37.75
2023-04-18T17:13:10.888Z,37.50
2023-04-18T17:18:15.181Z,38.06
2023-04-18T17:23:18.808Z,38.06
2023-04-18T17:28:25.954Z,38.17
2023-04-18T17:33:29.529Z,38.14
2023-04-18T17:38:33.212Z,38.03
2023-04-18T17:43:38.377Z,38.27
2023-04-18T17:48:42.360Z,38.13
2023-04-18T17:53:46.123Z,38.54
2023-04-18T17:58:51.679Z,38.39
2023-04-18T18:03:55.825Z,38.65
2023-04-18T18:08:59.748Z,38.24
2023-04-18T18:14:04.733Z,38.45
2023-04-18T18:19:08.493Z,38.54
2023-04-18T18:24:12.552Z,38.50
2023-04-18T18:29:19.601Z,38.67
2023-04-18T18:34:23.219Z,38.44
2023-04-18T18:39:27.759Z,38.61
2023-04-18T18:44:33.760Z,38.56
2023-04-18T18:49:37.580Z,38.32
2023-04-18T18:54:41.123Z,38.75
2023-04-18T18:59:46.197Z,39.16
2023-04-18T19:04:49.879Z,39.52
2023-04-18T19:09:55.375Z,39.88
2023-04-18T19:15:00.349Z,39.78
2023-04-18T19:20:04.574Z,40.05
2023-04-18T19:25:11.047Z,40.70
2023-04-18T19:30:15.930Z,40.63
2023-04-18T19:35:19.475Z,39.83
2023-04-18T19:40:26.743Z,39.87
2023-04-18T19:45:32.068Z,39.62
2023-04-18T19:50:35.605Z,39.94
2023-04-18T19:55:39.422Z,39.93
2023-04-18T20:00:44.381Z,39.64
2023-04-18T20:05:48.024Z,39.55
2023-04-18T20:10:51.558Z,39.54
2023-04-18T20:15:56.687Z,39.35
2023-04-18T20:21:00.239Z,39.15
2023-04-18T20:26:04.582Z,38.95
2023-04-18T20:31:09.648Z,38.19
2023-04-18T20:36:14.227Z,38.54
2023-04-18T20:41:18.335Z,38.78
2023-04-18T20:46:23.504Z,38.50
2023-04-18T20:51:28.060Z,38.30
2023-04-18T20:56:32.141Z,38.17
2023-04-18T21:01:37.366Z,38.10
2023-04-18T21:06:40.896Z,37.84
2023-04-18T21:11:44.467Z,38.18
2023-04-18T21:16:49.734Z,37.67
2023-04-18T21:21:53.222Z,37.17
2023-04-18T21:26:57.897Z,36.95
2023-04-18T21:32:02.797Z,36.92
2023-04-18T21:37:06.390Z,36.61
2023-04-18T21:42:10.037Z,36.73
2023-04-18T21:47:14.960Z,36.68
2023-04-18T21:52:18.145Z,36.42
2023-04-18T21:57:21.652Z,36.58
2023-04-18T22:02:26.985Z,36.53
2023-04-18T22:07:31.204Z,36.31
2023-04-18T22:12:35.396Z,36.49
2023-04-18T22:17:41.847Z,36.74
2023-04-18T22:22:45.572Z,36.68
2023-04-18T22:27:49.050Z,36.72
2023-04-18T22:32:54.101Z,36.64
2023-04-18T22:37:57.729Z,36.79
2023-04-18T22:43:01.450Z,36.63
2023-04-18T22:48:11.475Z,36.51
2023-04-18T22:53:15.500Z,36.25
2023-04-18T22:58:19.042Z,35.96
2023-04-18T23:03:24.130Z,35.80
2023-04-18T23:08:28.722Z,35.83
2023-04-18T23:13:33.617Z,35.54
2023-04-18T23:18:38.585Z,35.18
2023-04-18T23:23:42.104Z,35.11
2023-04-18T23:28:45.596Z,34.70
2023-04-18T23:33:50.668Z,34.46
2023-04-18T23:38:54.209Z,34.52
2023-04-18T23:43:57.753Z,34.54
2023-04-18T23:49:02.656Z,34.40
2023-04-18T23:54:05.911Z,34.29
2023-04-18T23:59:09.386Z,34.83
